sensor_id;sensor_type;location;lat;lon;timestamp;pressure;altitude;pressure_sealevel;temperature;humidity
7337;BME280;54510;42.016;23.098;2023-05-22T00:00:22;-21625.41;;;17.90;61.10
7337;BME280;54510;42.016;23.098;2023-05-22T00:02:48;-21621.13;;;17.74;61.63
7337;BME280;54510;42.016;23.098;2023-05-22T00:05:14;-21619.50;;;17.68;61.88
7337;BME280;54510;42.016;23.098;2023-05-22T00:07:42;-21624.03;;;17.85;61.54
7337;BME280;54510;42.016;23.098;2023-05-22T00:10:07;-21625.81;;;17.92;61.59
7337;BME280;54510;42.016;23.098;2023-05-22T00:12:33;-21628.84;;;18.03;61.47
7337;BME280;54510;42.016;23.098;2023-05-22T00:14:58;-21629.13;;;18.04;61.69
7337;BME280;54510;42.016;23.098;2023-05-22T00:17:24;-21630.22;;;18.08;61.75
7337;BME280;54510;42.016;23.098;2023-05-22T00:19:50;-21628.00;;;18.00;61.97
7337;BME280;54510;42.016;23.098;2023-05-22T00:22:15;-21627.47;;;17.98;61.97
7337;BME280;54510;42.016;23.098;2023-05-22T00:24:41;-21629.25;;;18.04;61.73
7337;BME280;54510;42.016;23.098;2023-05-22T00:27:06;-21630.06;;;18.07;61.75
7337;BME280;54510;42.016;23.098;2023-05-22T00:29:31;-21621.00;;;17.74;62.86
7337;BME280;54510;42.016;23.098;2023-05-22T00:31:56;-21624.03;;;17.85;62.33
7337;BME280;54510;42.016;23.098;2023-05-22T00:34:21;-21624.03;;;17.85;62.36
7337;BME280;54510;42.016;23.098;2023-05-22T00:36:47;-21628.28;;;18.01;61.87
7337;BME280;54510;42.016;23.098;2023-05-22T00:39:12;-21631.03;;;18.11;61.97
7337;BME280;54510;42.016;23.098;2023-05-22T00:41:38;-21629.25;;;18.04;62.02
7337;BME280;54510;42.016;23.098;2023-05-22T00:44:03;-21624.16;;;17.86;62.30
7337;BME280;54510;42.016;23.098;2023-05-22T00:46:28;-21628.44;;;18.01;62.30
7337;BME280;54510;42.016;23.098;2023-05-22T00:48:53;-21631.19;;;18.11;62.10
7337;BME280;54510;42.016;23.098;2023-05-22T00:51:20;-21633.38;;;18.20;62.06
7337;BME280;54510;42.016;23.098;2023-05-22T00:53:45;-21634.34;;;18.23;62.05
7337;BME280;54510;42.016;23.098;2023-05-22T00:56:11;-21635.03;;;18.26;61.63
7337;BME280;54510;42.016;23.098;2023-05-22T00:58:37;-21634.47;;;18.24;61.64
7337;BME280;54510;42.016;23.098;2023-05-22T01:01:02;-21635.16;;;18.26;61.62
7337;BME280;54510;42.016;23.098;2023-05-22T01:03:27;-21633.09;;;18.19;62.00
7337;BME280;54510;42.016;23.098;2023-05-22T01:05:54;-21633.25;;;18.19;61.97
7337;BME280;54510;42.016;23.098;2023-05-22T01:08:19;-21632.13;;;18.15;62.36
7337;BME280;54510;42.016;23.098;2023-05-22T01:10:45;-21632.41;;;18.16;62.33
7337;BME280;54510;42.016;23.098;2023-05-22T01:16:13;-21623.63;;;17.84;63.14
7337;BME280;54510;42.016;23.098;2023-05-22T01:21:12;-21621.81;;;17.77;63.13
7337;BME280;54510;42.016;23.098;2023-05-22T01:23:48;-21625.81;;;17.92;63.32
7337;BME280;54510;42.016;23.098;2023-05-22T01:31:28;-21628.97;;;18.03;62.62
7337;BME280;54510;42.016;23.098;2023-05-22T01:33:55;-21626.09;;;17.93;63.07
7337;BME280;54510;42.016;23.098;2023-05-22T01:36:21;-21629.94;;;18.07;62.70
7337;BME280;54510;42.016;23.098;2023-05-22T01:38:48;-21632.41;;;18.16;62.44
7337;BME280;54510;42.016;23.098;2023-05-22T01:41:17;-21627.47;;;17.98;62.83
7337;BME280;54510;42.016;23.098;2023-05-22T01:43:43;-21623.63;;;17.84;63.29
7337;BME280;54510;42.016;23.098;2023-05-22T01:46:09;-21624.72;;;17.88;63.50
7337;BME280;54510;42.016;23.098;2023-05-22T01:48:34;-21624.56;;;17.87;63.73
7337;BME280;54510;42.016;23.098;2023-05-22T01:51:02;-21626.63;;;17.95;63.42
7337;BME280;54510;42.016;23.098;2023-05-22T01:53:31;-21628.69;;;18.02;63.02
7337;BME280;54510;42.016;23.098;2023-05-22T01:56:02;-21629.66;;;18.06;62.99
7337;BME280;54510;42.016;23.098;2023-05-22T01:58:36;-21628.97;;;18.03;63.25
7337;BME280;54510;42.016;23.098;2023-05-22T02:01:03;-21630.50;;;18.09;63.00
7337;BME280;54510;42.016;23.098;2023-05-22T02:03:30;-21630.34;;;18.08;62.67
7337;BME280;54510;42.016;23.098;2023-05-22T02:05:58;-21629.81;;;18.06;63.44
7337;BME280;54510;42.016;23.098;2023-05-22T02:08:24;-21630.75;;;18.10;63.65
7337;BME280;54510;42.016;23.098;2023-05-22T02:10:49;-21622.38;;;17.79;64.43
7337;BME280;54510;42.016;23.098;2023-05-22T02:13:16;-21624.84;;;17.88;64.84
7337;BME280;54510;42.016;23.098;2023-05-22T02:15:45;-21626.38;;;17.94;64.74
7337;BME280;54510;42.016;23.098;2023-05-22T02:18:10;-21624.16;;;17.86;64.99
7337;BME280;54510;42.016;23.098;2023-05-22T02:20:39;-21622.25;;;17.79;65.53
7337;BME280;54510;42.016;23.098;2023-05-22T02:23:05;-21620.31;;;17.71;65.58
7337;BME280;54510;42.016;23.098;2023-05-22T02:25:30;-21612.59;;;17.43;66.69
7337;BME280;54510;42.016;23.098;2023-05-22T02:27:56;-21615.09;;;17.52;66.82
7337;BME280;54510;42.016;23.098;2023-05-22T02:30:21;-21619.63;;;17.69;66.01
7337;BME280;54510;42.016;23.098;2023-05-22T02:32:46;-21618.38;;;17.64;66.30
7337;BME280;54510;42.016;23.098;2023-05-22T02:35:12;-21621.00;;;17.74;66.08
7337;BME280;54510;42.016;23.098;2023-05-22T02:37:37;-21620.72;;;17.73;65.92
7337;BME280;54510;42.016;23.098;2023-05-22T02:40:03;-21620.88;;;17.73;66.36
7337;BME280;54510;42.016;23.098;2023-05-22T02:42:31;-21618.25;;;17.64;66.72
7337;BME280;54510;42.016;23.098;2023-05-22T02:44:57;-21619.22;;;17.67;66.80
7337;BME280;54510;42.016;23.098;2023-05-22T02:47:22;-21623.19;;;17.82;66.39
7337;BME280;54510;42.016;23.098;2023-05-22T02:49:47;-21625.53;;;17.91;65.95
7337;BME280;54510;42.016;23.098;2023-05-22T02:52:12;-21623.88;;;17.85;65.43
7337;BME280;54510;42.016;23.098;2023-05-22T02:54:38;-21622.78;;;17.81;65.67
7337;BME280;54510;42.016;23.098;2023-05-22T02:57:03;-21622.94;;;17.81;65.46
7337;BME280;54510;42.016;23.098;2023-05-22T02:59:28;-21622.94;;;17.81;65.65
7337;BME280;54510;42.016;23.098;2023-05-22T03:01:54;-21619.75;;;17.69;65.86
7337;BME280;54510;42.016;23.098;2023-05-22T03:04:19;-21618.66;;;17.65;65.94
7337;BME280;54510;42.016;23.098;2023-05-22T03:06:45;-21621.81;;;17.77;65.75
7337;BME280;54510;42.016;23.098;2023-05-22T03:09:10;-21622.94;;;17.81;65.01
7337;BME280;54510;42.016;23.098;2023-05-22T03:11:36;-21623.06;;;17.82;65.19
7337;BME280;54510;42.016;23.098;2023-05-22T03:14:01;-21623.19;;;17.82;64.91
7337;BME280;54510;42.016;23.098;2023-05-22T03:16:26;-21624.03;;;17.85;65.02
7337;BME280;54510;42.016;23.098;2023-05-22T03:19:05;-21623.88;;;17.85;65.31
7337;BME280;54510;42.016;23.098;2023-05-22T03:21:31;-21626.09;;;17.93;65.26
7337;BME280;54510;42.016;23.098;2023-05-22T03:23:56;-21626.63;;;17.95;65.37
7337;BME280;54510;42.016;23.098;2023-05-22T03:26:21;-21626.50;;;17.94;66.00
7337;BME280;54510;42.016;23.098;2023-05-22T03:28:47;-21625.94;;;17.92;66.13
7337;BME280;54510;42.016;23.098;2023-05-22T03:31:12;-21623.88;;;17.85;66.29
7337;BME280;54510;42.016;23.098;2023-05-22T03:33:37;-21623.19;;;17.82;66.23
7337;BME280;54510;42.016;23.098;2023-05-22T03:36:02;-21624.84;;;17.88;65.98
7337;BME280;54510;42.016;23.098;2023-05-22T03:38:28;-21624.16;;;17.86;66.02
7337;BME280;54510;42.016;23.098;2023-05-22T03:40:53;-21624.31;;;17.86;66.22
7337;BME280;54510;42.016;23.098;2023-05-22T03:43:19;-21623.19;;;17.82;66.12
7337;BME280;54510;42.016;23.098;2023-05-22T03:45:44;-21624.56;;;17.87;66.14
7337;BME280;54510;42.016;23.098;2023-05-22T03:48:09;-21624.31;;;17.86;66.15
7337;BME280;54510;42.016;23.098;2023-05-22T03:50:35;-21623.06;;;17.82;66.49
7337;BME280;54510;42.016;23.098;2023-05-22T03:53:00;-21623.34;;;17.83;66.37
7337;BME280;54510;42.016;23.098;2023-05-22T03:55:25;-21625.81;;;17.92;66.59
7337;BME280;54510;42.016;23.098;2023-05-22T03:57:50;-21627.75;;;17.99;66.35
7337;BME280;54510;42.016;23.098;2023-05-22T04:00:16;-21630.06;;;18.07;66.12
7337;BME280;54510;42.016;23.098;2023-05-22T04:02:43;-21631.59;;;18.13;65.62
7337;BME280;54510;42.016;23.098;2023-05-22T04:05:08;-21635.03;;;18.26;65.13
7337;BME280;54510;42.016;23.098;2023-05-22T04:07:34;-21634.06;;;18.22;64.30
7337;BME280;54510;42.016;23.098;2023-05-22T04:10:01;-21631.59;;;18.13;64.77
7337;BME280;54510;42.016;23.098;2023-05-22T04:12:26;-21632.00;;;18.14;64.94
7337;BME280;54510;42.016;23.098;2023-05-22T04:14:51;-21630.06;;;18.07;65.61
7337;BME280;54510;42.016;23.098;2023-05-22T04:17:16;-21633.94;;;18.22;65.63
7337;BME280;54510;42.016;23.098;2023-05-22T04:19:42;-21635.44;;;18.27;65.16
7337;BME280;54510;42.016;23.098;2023-05-22T04:22:07;-21641.22;;;18.48;64.53
7337;BME280;54510;42.016;23.098;2023-05-22T04:24:32;-21643.16;;;18.56;64.36
7337;BME280;54510;42.016;23.098;2023-05-22T04:26:58;-21641.91;;;18.51;63.80
7337;BME280;54510;42.016;23.098;2023-05-22T04:29:24;-21642.59;;;18.53;63.84
7337;BME280;54510;42.016;23.098;2023-05-22T04:31:50;-21644.38;;;18.60;63.33
7337;BME280;54510;42.016;23.098;2023-05-22T04:34:18;-21650.56;;;18.83;62.45
7337;BME280;54510;42.016;23.098;2023-05-22T04:36:44;-21653.31;;;18.93;62.06
7337;BME280;54510;42.016;23.098;2023-05-22T04:39:11;-21652.47;;;18.90;61.90
7337;BME280;54510;42.016;23.098;2023-05-22T04:41:38;-21651.25;;;18.85;61.78
7337;BME280;54510;42.016;23.098;2023-05-22T04:44:04;-21649.31;;;18.78;61.53
7337;BME280;54510;42.016;23.098;2023-05-22T04:46:29;-21652.06;;;18.88;61.19
7337;BME280;54510;42.016;23.098;2023-05-22T04:48:55;-21652.88;;;18.91;61.02
7337;BME280;54510;42.016;23.098;2023-05-22T04:51:22;-21656.31;;;19.04;60.96
7337;BME280;54510;42.016;23.098;2023-05-22T04:53:47;-21657.97;;;19.10;60.33
7337;BME280;54510;42.016;23.098;2023-05-22T04:56:13;-21657.69;;;19.09;60.33
7337;BME280;54510;42.016;23.098;2023-05-22T04:58:39;-21651.53;;;18.86;61.07
7337;BME280;54510;42.016;23.098;2023-05-22T05:01:04;-21652.47;;;18.90;61.02
7337;BME280;54510;42.016;23.098;2023-05-22T05:03:29;-21653.59;;;18.94;61.06
7337;BME280;54510;42.016;23.098;2023-05-22T05:05:55;-21654.41;;;18.97;60.86
7337;BME280;54510;42.016;23.098;2023-05-22T05:08:20;-21656.31;;;19.04;60.67
7337;BME280;54510;42.016;23.098;2023-05-22T05:10:46;-21658.66;;;19.13;60.68
7337;BME280;54510;42.016;23.098;2023-05-22T05:13:11;-21662.09;;;19.25;60.50
7337;BME280;54510;42.016;23.098;2023-05-22T05:15:36;-21663.88;;;19.32;60.36
7337;BME280;54510;42.016;23.098;2023-05-22T05:18:02;-21661.69;;;19.24;60.05
7337;BME280;54510;42.016;23.098;2023-05-22T05:20:27;-21659.06;;;19.14;60.46
7337;BME280;54510;42.016;23.098;2023-05-22T05:22:54;-21657.28;;;19.08;60.38
7337;BME280;54510;42.016;23.098;2023-05-22T05:25:19;-21657.97;;;19.10;60.73
7337;BME280;54510;42.016;23.098;2023-05-22T05:27:45;-21660.72;;;19.20;60.54
7337;BME280;54510;42.016;23.098;2023-05-22T05:30:10;-21660.59;;;19.20;60.82
7337;BME280;54510;42.016;23.098;2023-05-22T05:32:36;-21667.16;;;19.44;60.56
7337;BME280;54510;42.016;23.098;2023-05-22T05:35:02;-21670.34;;;19.56;60.18
7337;BME280;54510;42.016;23.098;2023-05-22T05:37:27;-21671.97;;;19.62;59.56
7337;BME280;54510;42.016;23.098;2023-05-22T05:39:52;-21671.69;;;19.61;59.70
7337;BME280;54510;42.016;23.098;2023-05-22T05:42:18;-21672.94;;;19.65;59.68
7337;BME280;54510;42.016;23.098;2023-05-22T05:44:43;-21672.13;;;19.62;59.80
7337;BME280;54510;42.016;23.098;2023-05-22T05:47:08;-21678.56;;;19.86;59.60
7337;BME280;54510;42.016;23.098;2023-05-22T05:49:34;-21680.06;;;19.92;59.27
7337;BME280;54510;42.016;23.098;2023-05-22T05:51:59;-21681.03;;;19.95;59.39
7337;BME280;54510;42.016;23.098;2023-05-22T05:54:24;-21680.47;;;19.93;59.17
7337;BME280;54510;42.016;23.098;2023-05-22T05:56:51;-21680.91;;;19.95;59.29
7337;BME280;54510;42.016;23.098;2023-05-22T05:59:16;-21681.84;;;19.98;60.33
7337;BME280;54510;42.016;23.098;2023-05-22T06:01:42;-21686.50;;;20.16;60.54
7337;BME280;54510;42.016;23.098;2023-05-22T06:04:08;-21686.50;;;20.16;61.30
7337;BME280;54510;42.016;23.098;2023-05-22T06:06:33;-21688.31;;;20.22;60.93
7337;BME280;54510;42.016;23.098;2023-05-22T06:09:03;-21686.50;;;20.16;60.72
7337;BME280;54510;42.016;23.098;2023-05-22T06:11:30;-21692.69;;;20.38;60.35
7337;BME280;54510;42.016;23.098;2023-05-22T06:13:56;-21692.97;;;20.39;58.81
7337;BME280;54510;42.016;23.098;2023-05-22T06:16:23;-21694.06;;;20.43;58.87
7337;BME280;54510;42.016;23.098;2023-05-22T06:18:48;-21696.66;;;20.53;58.80
7337;BME280;54510;42.016;23.098;2023-05-22T06:21:16;-21697.75;;;20.57;56.82
7337;BME280;54510;42.016;23.098;2023-05-22T06:23:41;-21700.22;;;20.66;56.09
7337;BME280;54510;42.016;23.098;2023-05-22T06:26:07;-21699.53;;;20.64;54.94
7337;BME280;54510;42.016;23.098;2023-05-22T06:28:32;-21702.97;;;20.76;54.36
7337;BME280;54510;42.016;23.098;2023-05-22T06:30:58;-21705.44;;;20.85;54.33
7337;BME280;54510;42.016;23.098;2023-05-22T06:33:23;-21708.31;;;20.96;54.22
7337;BME280;54510;42.016;23.098;2023-05-22T06:35:48;-21713.78;;;21.16;54.10
7337;BME280;54510;42.016;23.098;2023-05-22T06:38:14;-21713.38;;;21.15;53.53
7337;BME280;54510;42.016;23.098;2023-05-22T06:40:39;-21719.00;;;21.36;52.61
7337;BME280;54510;42.016;23.098;2023-05-22T06:43:04;-21723.09;;;21.51;52.52
7337;BME280;54510;42.016;23.098;2023-05-22T06:45:29;-21730.91;;;21.80;52.38
7337;BME280;54510;42.016;23.098;2023-05-22T06:47:55;-21724.75;;;21.57;52.13
7337;BME280;54510;42.016;23.098;2023-05-22T06:50:20;-21731.44;;;21.82;52.26
7337;BME280;54510;42.016;23.098;2023-05-22T06:52:46;-21726.53;;;21.63;52.05
7337;BME280;54510;42.016;23.098;2023-05-22T06:55:12;-21732.81;;;21.87;52.56
7337;BME280;54510;42.016;23.098;2023-05-22T06:57:37;-21736.91;;;22.02;52.19
7337;BME280;54510;42.016;23.098;2023-05-22T07:00:02;-21739.78;;;22.13;51.88
7337;BME280;54510;42.016;23.098;2023-05-22T07:02:32;-21744.97;;;22.32;50.43
7337;BME280;54510;42.016;23.098;2023-05-22T07:04:57;-21746.50;;;22.37;50.35
7337;BME280;54510;42.016;23.098;2023-05-22T07:07:25;-21747.84;;;22.42;50.89
7337;BME280;54510;42.016;23.098;2023-05-22T07:09:50;-21744.72;;;22.31;51.24
7337;BME280;54510;42.016;23.098;2023-05-22T07:12:16;-21753.59;;;22.64;50.76
7337;BME280;54510;42.016;23.098;2023-05-22T07:14:41;-21751.81;;;22.57;50.23
7337;BME280;54510;42.016;23.098;2023-05-22T07:17:06;-21750.84;;;22.54;50.43
7337;BME280;54510;42.016;23.098;2023-05-22T07:19:32;-21754.41;;;22.67;50.45
7337;BME280;54510;42.016;23.098;2023-05-22T07:21:59;-21752.63;;;22.60;50.94
7337;BME280;54510;42.016;23.098;2023-05-22T07:24:24;-21759.47;;;22.86;50.50
7337;BME280;54510;42.016;23.098;2023-05-22T07:26:50;-21766.03;;;23.10;50.05
7337;BME280;54510;42.016;23.098;2023-05-22T07:29:15;-21772.84;;;23.35;48.54
7337;BME280;54510;42.016;23.098;2023-05-22T07:31:41;-21777.09;;;23.51;48.09
7337;BME280;54510;42.016;23.098;2023-05-22T07:34:06;-21780.09;;;23.62;47.52
7337;BME280;54510;42.016;23.098;2023-05-22T07:36:31;-21783.78;;;23.76;47.08
7337;BME280;54510;42.016;23.098;2023-05-22T07:38:58;-21790.31;;;24.00;46.67
7337;BME280;54510;42.016;23.098;2023-05-22T07:41:24;-21796.19;;;24.22;46.17
7337;BME280;54510;42.016;23.098;2023-05-22T07:43:49;-21800.53;;;24.38;45.13
7337;BME280;54510;42.016;23.098;2023-05-22T07:46:14;-21804.38;;;24.52;44.98
7337;BME280;54510;42.016;23.098;2023-05-22T07:48:40;-21804.91;;;24.54;44.12
7337;BME280;54510;42.016;23.098;2023-05-22T07:51:05;-21799.47;;;24.34;45.09
7337;BME280;54510;42.016;23.098;2023-05-22T07:53:31;-21806.28;;;24.59;45.12
7337;BME280;54510;42.016;23.098;2023-05-22T07:55:57;-21795.09;;;24.18;44.88
7337;BME280;54510;42.016;23.098;2023-05-22T07:58:22;-21796.31;;;24.22;44.04
7337;BME280;54510;42.016;23.098;2023-05-22T08:00:48;-21801.09;;;24.40;43.48
7337;BME280;54510;42.016;23.098;2023-05-22T08:03:13;-21808.03;;;24.66;42.81
7337;BME280;54510;42.016;23.098;2023-05-22T08:05:39;-21815.94;;;24.95;42.52
7337;BME280;54510;42.016;23.098;2023-05-22T08:08:04;-21819.63;;;25.09;41.29
7337;BME280;54510;42.016;23.098;2023-05-22T08:10:30;-21822.63;;;25.20;40.68
7337;BME280;54510;42.016;23.098;2023-05-22T08:12:55;-21824.53;;;25.27;40.22
7337;BME280;54510;42.016;23.098;2023-05-22T08:15:22;-21829.56;;;25.46;40.74
7337;BME280;54510;42.016;23.098;2023-05-22T08:17:48;-21824.78;;;25.28;41.37
7337;BME280;54510;42.016;23.098;2023-05-22T08:20:13;-21825.19;;;25.30;41.07
7337;BME280;54510;42.016;23.098;2023-05-22T08:22:38;-21826.00;;;25.33;41.27
7337;BME280;54510;42.016;23.098;2023-05-22T08:25:04;-21833.22;;;25.60;39.98
7337;BME280;54510;42.016;23.098;2023-05-22T08:27:30;-21835.69;;;25.69;39.14
7337;BME280;54510;42.016;23.098;2023-05-22T08:29:55;-21834.47;;;25.64;39.77
7337;BME280;54510;42.016;23.098;2023-05-22T08:32:20;-21837.59;;;25.76;40.19
7337;BME280;54510;42.016;23.098;2023-05-22T08:34:46;-21838.81;;;25.80;40.51
7337;BME280;54510;42.016;23.098;2023-05-22T08:37:12;-21833.50;;;25.61;40.33
7337;BME280;54510;42.016;23.098;2023-05-22T08:39:39;-21837.84;;;25.77;37.88
7337;BME280;54510;42.016;23.098;2023-05-22T08:42:04;-21837.03;;;25.74;38.54
7337;BME280;54510;42.016;23.098;2023-05-22T08:44:30;-21832.81;;;25.58;38.89
7337;BME280;54510;42.016;23.098;2023-05-22T08:46:56;-21835.13;;;25.67;37.45
7337;BME280;54510;42.016;23.098;2023-05-22T08:49:23;-21844.50;;;26.02;37.93
7337;BME280;54510;42.016;23.098;2023-05-22T08:51:51;-21844.38;;;26.01;38.14
7337;BME280;54510;42.016;23.098;2023-05-22T08:54:17;-21841.94;;;25.92;38.00
7337;BME280;54510;42.016;23.098;2023-05-22T08:56:44;-21847.09;;;26.11;38.48
7337;BME280;54510;42.016;23.098;2023-05-22T08:59:09;-21845.88;;;26.07;39.98
7337;BME280;54510;42.016;23.098;2023-05-22T09:01:35;-21847.78;;;26.14;38.22
7337;BME280;54510;42.016;23.098;2023-05-22T09:04:00;-21847.66;;;26.13;38.07
7337;BME280;54510;42.016;23.098;2023-05-22T09:06:27;-21847.50;;;26.13;37.84
7337;BME280;54510;42.016;23.098;2023-05-22T09:08:53;-21846.69;;;26.10;38.34
7337;BME280;54510;42.016;23.098;2023-05-22T09:11:19;-21846.81;;;26.10;37.99
7337;BME280;54510;42.016;23.098;2023-05-22T09:13:45;-21849.53;;;26.20;38.06
7337;BME280;54510;42.016;23.098;2023-05-22T09:16:11;-21849.81;;;26.21;38.14
7337;BME280;54510;42.016;23.098;2023-05-22T09:18:37;-21849.81;;;26.21;37.36
7337;BME280;54510;42.016;23.098;2023-05-22T09:21:02;-21856.75;;;26.47;37.58
7337;BME280;54510;42.016;23.098;2023-05-22T09:23:28;-21859.59;;;26.58;38.09
7337;BME280;54510;42.016;23.098;2023-05-22T09:25:54;-21852.28;;;26.30;38.02
7337;BME280;54510;42.016;23.098;2023-05-22T09:28:20;-21839.91;;;25.84;38.21
7337;BME280;54510;42.016;23.098;2023-05-22T09:30:49;-21834.31;;;25.64;39.34
7337;BME280;54510;42.016;23.098;2023-05-22T09:33:15;-21841.53;;;25.90;37.80
7337;BME280;54510;42.016;23.098;2023-05-22T09:35:41;-21848.06;;;26.15;38.28
7337;BME280;54510;42.016;23.098;2023-05-22T09:38:07;-21852.00;;;26.29;37.74
7337;BME280;54510;42.016;23.098;2023-05-22T09:40:33;-21855.41;;;26.42;37.46
7337;BME280;54510;42.016;23.098;2023-05-22T09:43:05;-21849.94;;;26.22;37.78
7337;BME280;54510;42.016;23.098;2023-05-22T09:45:31;-21847.50;;;26.13;37.98
7337;BME280;54510;42.016;23.098;2023-05-22T09:47:58;-21847.78;;;26.14;38.77
7337;BME280;54510;42.016;23.098;2023-05-22T09:50:23;-21842.47;;;25.94;38.72
7337;BME280;54510;42.016;23.098;2023-05-22T09:52:49;-21838.81;;;25.80;38.85
7337;BME280;54510;42.016;23.098;2023-05-22T09:55:14;-21827.38;;;25.38;39.66
7337;BME280;54510;42.016;23.098;2023-05-22T09:57:44;-21837.19;;;25.74;39.32
7337;BME280;54510;42.016;23.098;2023-05-22T10:00:11;-21819.34;;;25.08;40.59
7337;BME280;54510;42.016;23.098;2023-05-22T10:02:37;-21826.44;;;25.34;40.72
7337;BME280;54510;42.016;23.098;2023-05-22T10:05:06;-21827.50;;;25.38;40.11
7337;BME280;54510;42.016;23.098;2023-05-22T10:07:35;-21829.81;;;25.47;39.66
7337;BME280;54510;42.016;23.098;2023-05-22T10:10:07;-21833.22;;;25.60;39.92
7337;BME280;54510;42.016;23.098;2023-05-22T10:12:34;-21843.16;;;25.96;39.51
7337;BME280;54510;42.016;23.098;2023-05-22T10:15:01;-21849.00;;;26.18;38.77
7337;BME280;54510;42.016;23.098;2023-05-22T10:17:27;-21856.34;;;26.46;38.59
7337;BME280;54510;42.016;23.098;2023-05-22T10:19:52;-21859.06;;;26.56;38.33
7337;BME280;54510;42.016;23.098;2023-05-22T10:22:19;-21859.06;;;26.56;38.17
7337;BME280;54510;42.016;23.098;2023-05-22T10:24:45;-21851.72;;;26.28;38.68
7337;BME280;54510;42.016;23.098;2023-05-22T10:27:10;-21849.13;;;26.19;38.30
7337;BME280;54510;42.016;23.098;2023-05-22T10:29:37;-21844.38;;;26.01;38.45
7337;BME280;54510;42.016;23.098;2023-05-22T10:32:19;-21843.28;;;25.97;38.12
7337;BME280;54510;42.016;23.098;2023-05-22T10:40:01;-21857.84;;;26.51;36.28
7337;BME280;54510;42.016;23.098;2023-05-22T10:42:29;-21854.03;;;26.37;35.93
7337;BME280;54510;42.016;23.098;2023-05-22T10:44:55;-21864.34;;;26.75;36.12
7337;BME280;54510;42.016;23.098;2023-05-22T10:47:20;-21862.88;;;26.70;35.58
7337;BME280;54510;42.016;23.098;2023-05-22T10:49:45;-21865.31;;;26.79;35.01
7337;BME280;54510;42.016;23.098;2023-05-22T10:52:13;-21864.22;;;26.75;34.70
7337;BME280;54510;42.016;23.098;2023-05-22T10:54:41;-21873.72;;;27.10;34.27
7337;BME280;54510;42.016;23.098;2023-05-22T10:57:13;-21878.34;;;27.28;34.36
7337;BME280;54510;42.016;23.098;2023-05-22T10:59:40;-21885.66;;;27.55;33.50
7337;BME280;54510;42.016;23.098;2023-05-22T11:02:09;-21889.75;;;27.70;33.49
7337;BME280;54510;42.016;23.098;2023-05-22T11:04:42;-21897.59;;;28.00;32.67
7337;BME280;54510;42.016;23.098;2023-05-22T11:07:07;-21897.88;;;28.01;33.19
7337;BME280;54510;42.016;23.098;2023-05-22T11:09:40;-21901.81;;;28.15;32.88
7337;BME280;54510;42.016;23.098;2023-05-22T11:14:51;-21903.56;;;28.22;31.98
7337;BME280;54510;42.016;23.098;2023-05-22T11:17:19;-21902.88;;;28.19;31.58
7337;BME280;54510;42.016;23.098;2023-05-22T11:22:32;-21901.41;;;28.14;31.55
7337;BME280;54510;42.016;23.098;2023-05-22T11:24:58;-21902.34;;;28.17;31.37
7337;BME280;54510;42.016;23.098;2023-05-22T11:27:23;-21902.22;;;28.17;32.48
7337;BME280;54510;42.016;23.098;2023-05-22T11:29:48;-21902.75;;;28.19;32.37
7337;BME280;54510;42.016;23.098;2023-05-22T11:32:14;-21901.00;;;28.12;32.46
7337;BME280;54510;42.016;23.098;2023-05-22T11:34:45;-21896.09;;;27.94;32.20
7337;BME280;54510;42.016;23.098;2023-05-22T11:37:10;-21896.78;;;27.97;32.08
7337;BME280;54510;42.016;23.098;2023-05-22T11:39:36;-21899.50;;;28.07;32.13
7337;BME280;54510;42.016;23.098;2023-05-22T11:42:01;-21905.88;;;28.31;32.50
7337;BME280;54510;42.016;23.098;2023-05-22T11:44:28;-21904.66;;;28.26;32.41
7337;BME280;54510;42.016;23.098;2023-05-22T11:46:53;-21909.13;;;28.43;31.94
7337;BME280;54510;42.016;23.098;2023-05-22T11:49:19;-21914.13;;;28.61;31.70
7337;BME280;54510;42.016;23.098;2023-05-22T11:51:47;-21918.47;;;28.78;31.65
7337;BME280;54510;42.016;23.098;2023-05-22T11:54:16;-21918.34;;;28.77;30.49
7337;BME280;54510;42.016;23.098;2023-05-22T11:56:41;-21924.44;;;29.00;31.16
7337;BME280;54510;42.016;23.098;2023-05-22T11:59:06;-21926.31;;;29.07;31.09
7337;BME280;54510;42.016;23.098;2023-05-22T12:01:32;-21938.22;;;29.52;30.05
7337;BME280;54510;42.016;23.098;2023-05-22T12:03:57;-21939.56;;;29.57;30.11
7337;BME280;54510;42.016;23.098;2023-05-22T12:06:22;-21942.56;;;29.68;29.41
7337;BME280;54510;42.016;23.098;2023-05-22T12:08:48;-21944.31;;;29.74;27.81
7337;BME280;54510;42.016;23.098;2023-05-22T12:11:13;-21939.84;;;29.58;28.05
7337;BME280;54510;42.016;23.098;2023-05-22T12:13:38;-21931.19;;;29.25;28.86
7337;BME280;54510;42.016;23.098;2023-05-22T12:16:16;-21936.59;;;29.45;28.30
7337;BME280;54510;42.016;23.098;2023-05-22T12:18:41;-21937.16;;;29.48;28.26
7337;BME280;54510;42.016;23.098;2023-05-22T12:21:07;-21941.06;;;29.62;28.77
7337;BME280;54510;42.016;23.098;2023-05-22T12:23:32;-21938.09;;;29.51;28.45
7337;BME280;54510;42.016;23.098;2023-05-22T12:25:58;-21930.91;;;29.24;28.84
7337;BME280;54510;42.016;23.098;2023-05-22T12:28:24;-21918.47;;;28.78;29.38
7337;BME280;54510;42.016;23.098;2023-05-22T12:30:53;-21918.75;;;28.79;29.31
7337;BME280;54510;42.016;23.098;2023-05-22T12:33:18;-21917.38;;;28.74;30.53
7337;BME280;54510;42.016;23.098;2023-05-22T12:35:44;-21911.03;;;28.50;29.99
7337;BME280;54510;42.016;23.098;2023-05-22T12:38:09;-21908.72;;;28.41;30.22
7337;BME280;54510;42.016;23.098;2023-05-22T12:40:35;-21902.88;;;28.19;30.22
7337;BME280;54510;42.016;23.098;2023-05-22T12:43:00;-21899.63;;;28.07;30.16
7337;BME280;54510;42.016;23.098;2023-05-22T12:45:26;-21906.00;;;28.31;29.69
7337;BME280;54510;42.016;23.098;2023-05-22T12:47:51;-21906.53;;;28.33;30.34
7337;BME280;54510;42.016;23.098;2023-05-22T12:50:16;-21904.66;;;28.26;31.89
7337;BME280;54510;42.016;23.098;2023-05-22T12:52:41;-21902.50;;;28.18;32.11
7337;BME280;54510;42.016;23.098;2023-05-22T12:55:08;-21903.84;;;28.23;33.30
7337;BME280;54510;42.016;23.098;2023-05-22T12:57:34;-21896.53;;;27.96;35.57
7337;BME280;54510;42.016;23.098;2023-05-22T12:59:59;-21896.78;;;27.97;35.64
7337;BME280;54510;42.016;23.098;2023-05-22T13:02:24;-21894.47;;;27.88;35.22
7337;BME280;54510;42.016;23.098;2023-05-22T13:04:50;-21891.38;;;27.76;35.74